createdAt,value
2018-11-10T00:00:17.841Z,9.20
2018-11-10T00:02:48.163Z,9.10
2018-11-10T00:05:18.565Z,8.90
2018-11-10T00:07:48.354Z,8.90
2018-11-10T00:10:21.260Z,8.70
2018-11-10T00:12:49.909Z,8.70
2018-11-10T00:15:20.620Z,8.60
2018-11-10T00:17:49.857Z,8.60
2018-11-10T00:20:18.117Z,8.60
2018-11-10T00:22:46.701Z,8.60
2018-11-10T00:25:16.045Z,8.60
2018-11-10T00:27:45.921Z,8.60
2018-11-10T00:30:16.370Z,8.60
2018-11-10T00:32:45.305Z,8.60
2018-11-10T00:35:13.687Z,8.60
2018-11-10T00:37:42.031Z,8.60
2018-11-10T00:40:12.221Z,8.60
2018-11-10T00:42:40.561Z,8.60
2018-11-10T00:45:09.111Z,8.70
2018-11-10T00:47:37.778Z,8.60
2018-11-10T00:50:06.237Z,8.70
2018-11-10T00:52:34.537Z,8.80
2018-11-10T00:55:02.901Z,8.90
2018-11-10T00:57:31.158Z,9.20
2018-11-10T00:59:59.502Z,9.20
2018-11-10T01:02:27.782Z,9.20
2018-11-10T01:04:56.075Z,9.20
2018-11-10T01:07:24.442Z,9.10
2018-11-10T01:09:52.694Z,9.10
2018-11-10T01:12:20.953Z,9.00
2018-11-10T01:14:49.223Z,9.00
2018-11-10T01:17:17.513Z,9.30
2018-11-10T01:19:45.811Z,9.40
2018-11-10T01:22:14.105Z,9.40
2018-11-10T01:24:42.430Z,9.40
2018-11-10T01:27:10.712Z,9.50
2018-11-10T01:29:38.974Z,9.50
2018-11-10T01:32:07.267Z,9.60
2018-11-10T01:34:35.556Z,9.70
2018-11-10T01:37:03.852Z,9.80
2018-11-10T01:39:32.098Z,9.80
2018-11-10T01:42:00.364Z,10.20
2018-11-10T01:44:28.654Z,10.40
2018-11-10T01:46:57.181Z,10.50
2018-11-10T01:49:25.497Z,10.70
2018-11-10T01:51:53.756Z,10.70
2018-11-10T01:54:22.050Z,10.70
2018-11-10T01:56:50.362Z,10.80
2018-11-10T01:59:18.637Z,10.90
2018-11-10T02:01:46.898Z,10.90
2018-11-10T02:04:15.178Z,10.90
2018-11-10T02:06:43.512Z,10.90
2018-11-10T02:09:11.752Z,11.00
2018-11-10T02:11:40.189Z,11.20
2018-11-10T02:14:08.463Z,11.10
2018-11-10T02:16:53.366Z,11.20
2018-11-10T02:19:21.646Z,11.20
2018-11-10T02:21:49.934Z,11.10
2018-11-10T02:24:18.196Z,11.20
2018-11-10T02:26:46.495Z,11.30
2018-11-10T02:29:14.788Z,11.30
2018-11-10T02:31:43.065Z,11.30
2018-11-10T02:34:11.342Z,11.20
2018-11-10T02:36:39.613Z,11.20
2018-11-10T02:39:08.791Z,11.20
2018-11-10T02:41:37.114Z,11.20
2018-11-10T02:44:05.537Z,11.20
2018-11-10T02:46:33.814Z,11.30
2018-11-10T02:49:02.081Z,11.30
2018-11-10T02:51:30.335Z,11.20
2018-11-10T02:53:58.608Z,11.30
2018-11-10T02:56:26.973Z,11.30
2018-11-10T02:58:55.250Z,11.20
2018-11-10T03:01:23.522Z,11.20
2018-11-10T03:03:51.765Z,11.20
2018-11-10T03:06:20.043Z,11.10
2018-11-10T03:08:48.319Z,11.20
2018-11-10T03:11:16.583Z,11.10
2018-11-10T03:13:44.824Z,11.10
2018-11-10T03:16:13.115Z,11.00
2018-11-10T03:18:41.412Z,11.10
2018-11-10T03:21:09.661Z,11.10
2018-11-10T03:23:37.913Z,11.00
2018-11-10T03:26:06.194Z,11.00
2018-11-10T03:28:38.281Z,11.10
2018-11-10T03:31:06.787Z,11.10
2018-11-10T03:33:35.045Z,11.20
2018-11-10T03:36:03.363Z,11.10
2018-11-10T03:38:31.653Z,11.10
2018-11-10T03:40:59.914Z,11.10
2018-11-10T03:43:28.187Z,11.20
2018-11-10T03:45:56.446Z,11.30
2018-11-10T03:48:24.818Z,11.40
2018-11-10T03:50:53.052Z,11.60
2018-11-10T03:53:21.305Z,11.60
2018-11-10T03:55:49.657Z,11.80
2018-11-10T03:58:17.927Z,12.00
2018-11-10T04:00:46.209Z,12.00
2018-11-10T04:03:14.518Z,12.10
2018-11-10T04:05:42.771Z,12.20
2018-11-10T04:08:11.021Z,12.50
2018-11-10T04:10:39.292Z,12.70
2018-11-10T04:13:07.569Z,12.80
2018-11-10T04:15:35.861Z,12.80
2018-11-10T04:18:04.150Z,12.90
2018-11-10T04:20:32.435Z,12.90
2018-11-10T04:23:00.709Z,13.00
2018-11-10T04:25:29.789Z,13.10
2018-11-10T04:27:58.060Z,13.10
2018-11-10T04:30:26.461Z,13.10
2018-11-10T04:32:54.792Z,13.20
2018-11-10T04:35:23.028Z,13.20
2018-11-10T04:37:51.513Z,13.10
2018-11-10T04:40:20.226Z,13.10
2018-11-10T04:42:48.491Z,13.10
2018-11-10T04:45:16.806Z,13.00
2018-11-10T04:47:45.089Z,13.10
2018-11-10T04:50:13.361Z,13.10
2018-11-10T04:52:41.958Z,13.00
2018-11-10T04:55:11.078Z,13.10
2018-11-10T04:57:39.695Z,13.10
2018-11-10T05:05:05.592Z,13.20
2018-11-10T05:07:33.823Z,13.20
2018-11-10T05:10:02.098Z,13.30
2018-11-10T05:12:30.374Z,13.30
2018-11-10T05:14:58.626Z,13.20
2018-11-10T05:17:26.937Z,13.40
2018-11-10T05:44:35.505Z,13.40
2018-11-10T05:47:03.772Z,13.80
2018-11-10T05:49:32.037Z,14.00
2018-11-10T06:01:52.342Z,14.00
2018-11-10T06:04:20.608Z,14.20
2018-11-10T06:06:48.885Z,14.10
2018-11-10T06:09:17.243Z,14.20
2018-11-10T06:11:45.433Z,14.10
2018-11-10T06:14:13.722Z,14.10
2018-11-10T06:16:41.996Z,14.10
2018-11-10T06:19:10.268Z,14.10
2018-11-10T06:21:38.549Z,14.10
2018-11-10T06:24:06.908Z,14.00
2018-11-10T06:26:35.187Z,14.10
2018-11-10T06:29:03.478Z,14.00
2018-11-10T06:31:31.751Z,14.00
2018-11-10T06:34:00.123Z,14.00
2018-11-10T06:36:28.415Z,13.90
2018-11-10T06:38:56.726Z,13.80
2018-11-10T06:41:25.068Z,13.70
2018-11-10T06:43:53.382Z,13.60
2018-11-10T06:46:21.760Z,13.50
2018-11-10T06:48:50.041Z,13.40
2018-11-10T06:51:18.325Z,13.40
2018-11-10T06:53:46.605Z,13.30
2018-11-10T06:56:14.965Z,13.20
2018-11-10T06:58:43.272Z,13.20
2018-11-10T07:01:11.537Z,13.10
2018-11-10T07:03:39.813Z,13.10
2018-11-10T07:06:08.755Z,13.10
2018-11-10T07:43:12.203Z,13.00
2018-11-10T07:45:40.398Z,12.90
2018-11-10T07:48:08.694Z,12.80
2018-11-10T07:50:37.303Z,12.90
2018-11-10T07:53:05.668Z,12.90
2018-11-10T07:55:34.025Z,12.80
2018-11-10T07:58:02.352Z,12.80
2018-11-10T08:00:30.809Z,12.80
2018-11-10T08:02:59.047Z,12.80
2018-11-10T08:05:27.555Z,12.90
2018-11-10T08:07:56.009Z,13.00
2018-11-10T08:10:24.475Z,13.00
2018-11-10T08:12:52.814Z,13.00
2018-11-10T08:15:21.211Z,13.20
2018-11-10T08:17:49.932Z,13.20
2018-11-10T08:20:18.412Z,13.10
2018-11-10T08:22:46.697Z,13.20
2018-11-10T08:25:15.577Z,13.20
2018-11-10T08:27:44.001Z,13.20
2018-11-10T08:30:13.317Z,13.20
2018-11-10T08:32:42.218Z,13.20
2018-11-10T08:35:11.727Z,13.20
2018-11-10T08:37:40.001Z,13.20
2018-11-10T08:40:11.259Z,13.20
2018-11-10T08:42:39.541Z,13.30
2018-11-10T08:45:08.714Z,13.20
2018-11-10T08:47:37.009Z,13.20
2018-11-10T08:50:06.134Z,13.20
2018-11-10T08:52:34.549Z,13.20
2018-11-10T08:55:02.886Z,13.10
2018-11-10T08:57:31.197Z,13.20
2018-11-10T08:59:59.458Z,13.20
2018-11-10T09:02:27.729Z,13.20
2018-11-10T09:04:56.064Z,13.20
2018-11-10T09:07:24.467Z,13.20
2018-11-10T09:09:52.810Z,13.20
2018-11-10T09:12:22.170Z,13.20
2018-11-10T09:14:50.574Z,13.20
2018-11-10T09:17:18.830Z,13.20
2018-11-10T09:19:47.260Z,13.20
2018-11-10T09:22:15.571Z,13.20
2018-11-10T09:24:44.286Z,13.30
2018-11-10T09:27:12.563Z,13.30
2018-11-10T09:29:40.843Z,13.30
2018-11-10T09:32:09.196Z,13.30
2018-11-10T09:34:37.499Z,13.30
2018-11-10T09:37:06.340Z,13.30
2018-11-10T09:39:34.857Z,13.40
2018-11-10T09:42:03.807Z,13.40
2018-11-10T09:44:32.043Z,13.40
2018-11-10T09:47:00.788Z,13.40
2018-11-10T09:49:29.086Z,12.90
2018-11-10T09:51:57.438Z,13.40
2018-11-10T09:54:25.725Z,13.40
2018-11-10T09:56:54.057Z,13.40
2018-11-10T09:59:22.398Z,13.40
2018-11-10T10:01:50.942Z,13.30
2018-11-10T10:04:19.067Z,13.30
2018-11-10T10:06:47.450Z,13.40
2018-11-10T10:09:15.868Z,13.40
2018-11-10T10:11:44.230Z,13.40
2018-11-10T10:14:13.691Z,13.40
2018-11-10T10:16:42.146Z,13.50
2018-11-10T10:19:10.687Z,13.50
2018-11-10T10:21:39.098Z,13.50
2018-11-10T10:24:07.996Z,13.50
2018-11-10T10:26:36.408Z,13.50
2018-11-10T10:29:05.840Z,13.60
2018-11-10T10:31:34.443Z,13.60
2018-11-10T10:34:02.997Z,13.60
2018-11-10T10:36:31.271Z,13.60
2018-11-10T10:38:59.702Z,13.60
2018-11-10T10:41:28.086Z,13.70
2018-11-10T10:43:56.438Z,13.70
2018-11-10T10:46:24.776Z,13.70
2018-11-10T10:48:53.306Z,13.70
2018-11-10T10:51:21.430Z,13.70
2018-11-10T10:53:49.839Z,13.70
2018-11-10T10:56:18.186Z,13.80
2018-11-10T10:58:46.421Z,13.80
2018-11-10T11:01:20.544Z,13.80
2018-11-10T11:03:55.200Z,13.80
2018-11-10T11:06:24.150Z,13.90
2018-11-10T11:08:52.492Z,13.90
2018-11-10T11:11:20.788Z,13.90
2018-11-10T11:13:49.713Z,13.80
2018-11-10T11:16:18.061Z,13.80
2018-11-10T11:18:46.789Z,13.80
2018-11-10T11:21:15.146Z,13.80
2018-11-10T11:23:43.545Z,13.80
2018-11-10T11:26:11.942Z,13.80
2018-11-10T11:28:40.277Z,13.80
2018-11-10T11:31:08.621Z,13.80
2018-11-10T11:33:36.889Z,13.80
2018-11-10T11:36:06.355Z,13.80
2018-11-10T11:38:34.761Z,13.80
2018-11-10T11:41:03.160Z,13.80
2018-11-10T11:43:31.515Z,13.80
2018-11-10T11:45:59.875Z,13.80
2018-11-10T11:48:28.171Z,13.80
2018-11-10T11:50:56.451Z,13.80
2018-11-10T11:53:24.765Z,13.80
2018-11-10T11:55:53.189Z,13.80
2018-11-10T11:58:21.557Z,13.90
2018-11-10T12:00:50.337Z,14.00
2018-11-10T12:03:18.770Z,14.10
2018-11-10T12:05:47.117Z,14.10
2018-11-10T12:08:15.401Z,14.20
2018-11-10T12:10:43.935Z,14.60
2018-11-10T12:13:12.255Z,14.20
2018-11-10T12:15:41.191Z,14.10
2018-11-10T12:18:09.639Z,14.20
2018-11-10T12:20:37.963Z,14.20
2018-11-10T12:23:06.277Z,14.20
2018-11-10T12:25:35.084Z,14.20
2018-11-10T12:28:03.387Z,14.20
2018-11-10T12:30:31.737Z,14.10
2018-11-10T12:33:00.015Z,14.20
2018-11-10T12:35:28.381Z,14.10
2018-11-10T12:37:56.630Z,14.10
2018-11-10T12:40:24.961Z,14.10
2018-11-10T12:42:53.219Z,14.10
2018-11-10T12:45:21.534Z,14.10
2018-11-10T12:47:49.809Z,14.10
2018-11-10T12:50:18.186Z,14.10
2018-11-10T12:52:46.461Z,14.00
2018-11-10T12:55:15.696Z,14.00
2018-11-10T12:57:44.525Z,14.00
2018-11-10T13:00:15.223Z,14.00
2018-11-10T13:02:43.853Z,14.00
2018-11-10T13:05:12.535Z,14.00
2018-11-10T13:07:42.174Z,13.90
2018-11-10T13:10:11.066Z,13.90
2018-11-10T13:12:39.758Z,13.80
2018-11-10T13:15:08.335Z,13.80
2018-11-10T13:17:36.769Z,13.80
2018-11-10T13:20:06.657Z,13.70
2018-11-10T13:22:34.935Z,13.70
2018-11-10T13:25:03.272Z,13.70
2018-11-10T13:27:31.636Z,13.70
2018-11-10T13:29:59.907Z,13.70
2018-11-10T13:32:28.162Z,13.70
2018-11-10T13:34:56.446Z,13.60
2018-11-10T13:37:24.706Z,13.60
2018-11-10T13:39:53.025Z,13.60
2018-11-10T13:42:21.387Z,13.50
2018-11-10T13:44:49.617Z,13.50
2018-11-10T13:47:17.999Z,13.50
2018-11-10T13:49:46.295Z,13.50
2018-11-10T13:52:14.929Z,13.60
2018-11-10T13:54:42.910Z,13.60
2018-11-10T13:57:11.222Z,13.60
2018-11-10T13:59:39.612Z,13.60
2018-11-10T14:02:07.887Z,13.60
2018-11-10T14:04:36.223Z,13.60
2018-11-10T14:07:04.530Z,13.60
2018-11-10T14:09:32.887Z,13.60
2018-11-10T14:12:01.269Z,13.50
2018-11-10T14:14:29.574Z,13.60
2018-11-10T14:16:57.957Z,13.60
2018-11-10T14:19:26.242Z,13.60
2018-11-10T14:21:54.517Z,13.60
2018-11-10T14:24:23.043Z,13.60
2018-11-10T14:26:51.417Z,13.60
2018-11-10T14:29:19.728Z,14.10
2018-11-10T14:31:48.062Z,13.60
2018-11-10T14:34:16.392Z,13.60
2018-11-10T14:36:44.767Z,12.50
2018-11-10T14:39:13.048Z,13.60
2018-11-10T14:41:41.310Z,13.60
2018-11-10T14:44:09.807Z,13.60
2018-11-10T14:46:38.125Z,13.60
2018-11-10T14:49:06.692Z,13.60
2018-11-10T14:51:35.863Z,13.70
2018-11-10T14:54:04.968Z,13.70
2018-11-10T14:56:33.229Z,13.70
2018-11-10T14:59:01.554Z,13.70
2018-11-10T15:01:29.838Z,13.70
2018-11-10T15:03:58.127Z,13.70
2018-11-10T15:06:26.389Z,13.70
2018-11-10T15:08:54.669Z,13.70
2018-11-10T15:11:23.000Z,13.70
2018-11-10T15:13:51.458Z,13.70
2018-11-10T15:16:19.725Z,13.70
2018-11-10T15:18:48.001Z,13.70
2018-11-10T15:21:16.368Z,13.70
2018-11-10T15:23:44.657Z,13.70
2018-11-10T15:26:12.936Z,13.70
2018-11-10T15:28:41.232Z,13.70
2018-11-10T15:31:09.494Z,13.70
2018-11-10T15:33:37.795Z,13.70
2018-11-10T15:36:06.057Z,13.70
2018-11-10T15:38:34.334Z,13.70
2018-11-10T15:41:02.609Z,13.70
2018-11-10T15:43:30.897Z,13.70
2018-11-10T15:45:59.256Z,13.70
2018-11-10T15:48:27.506Z,13.80
2018-11-10T15:50:55.846Z,13.80
2018-11-10T15:53:24.139Z,13.80
2018-11-10T15:55:52.414Z,13.80
2018-11-10T15:58:20.721Z,13.70
2018-11-10T16:00:48.992Z,13.70
2018-11-10T16:03:17.325Z,13.70
2018-11-10T16:05:45.611Z,13.70
2018-11-10T16:08:14.635Z,13.70
2018-11-10T16:10:42.990Z,13.80
2018-11-10T16:13:11.355Z,13.70
2018-11-10T16:15:39.702Z,13.70
2018-11-10T16:18:07.998Z,13.70
2018-11-10T16:20:36.313Z,13.60
2018-11-10T16:23:04.761Z,13.60
2018-11-10T16:25:33.042Z,13.70
2018-11-10T16:28:01.344Z,13.70
2018-11-10T16:30:29.605Z,13.70
2018-11-10T16:32:57.890Z,13.70
2018-11-10T16:35:26.201Z,13.70
2018-11-10T16:37:54.565Z,13.60
2018-11-10T16:40:22.842Z,13.60
2018-11-10T16:42:51.209Z,13.70
2018-11-10T16:45:20.321Z,13.70
2018-11-10T16:47:48.639Z,13.60
2018-11-10T16:50:16.957Z,13.50
2018-11-10T16:52:45.741Z,13.60
2018-11-10T16:55:14.189Z,13.60
2018-11-10T16:57:42.433Z,13.60
2018-11-10T17:00:12.734Z,13.60
2018-11-10T17:02:41.281Z,13.50
2018-11-10T17:05:09.761Z,13.50
2018-11-10T17:07:38.348Z,13.50
2018-11-10T17:10:08.198Z,13.50
2018-11-10T17:12:36.538Z,13.50
2018-11-10T17:15:05.377Z,13.40
2018-11-10T17:17:33.682Z,13.50
2018-11-10T17:20:01.975Z,13.50
2018-11-10T17:22:30.313Z,13.50
2018-11-10T17:24:58.532Z,13.50
2018-11-10T17:27:26.827Z,13.50
2018-11-10T17:29:55.152Z,13.60
2018-11-10T17:32:23.740Z,13.60
2018-11-10T17:34:52.036Z,13.60
2018-11-10T17:37:20.468Z,13.60
2018-11-10T17:39:48.989Z,13.60
2018-11-10T17:42:17.445Z,13.60
2018-11-10T17:44:45.654Z,13.60
2018-11-10T17:47:14.055Z,13.60
2018-11-10T17:49:42.389Z,13.50
2018-11-10T17:52:10.856Z,13.60
2018-11-10T17:54:39.462Z,13.60
2018-11-10T17:57:07.752Z,13.50
2018-11-10T17:59:36.050Z,13.50
2018-11-10T18:02:04.467Z,13.60
2018-11-10T18:04:32.794Z,13.60
2018-11-10T18:07:01.092Z,13.70
2018-11-10T18:09:29.417Z,13.70
2018-11-10T18:11:57.729Z,13.70
2018-11-10T18:14:26.065Z,13.70
2018-11-10T18:16:54.397Z,13.70
2018-11-10T18:19:22.679Z,13.70
2018-11-10T18:21:51.021Z,13.80
2018-11-10T18:24:19.346Z,13.80
2018-11-10T18:26:47.651Z,13.80
2018-11-10T18:29:15.957Z,13.80
2018-11-10T18:31:44.262Z,13.80
2018-11-10T18:34:12.667Z,13.80
2018-11-10T18:36:41.009Z,13.80
2018-11-10T18:39:10.178Z,13.80
2018-11-10T18:41:38.603Z,13.80
2018-11-10T18:44:07.122Z,13.80
2018-11-10T18:46:35.561Z,13.80
2018-11-10T18:49:03.845Z,13.80
2018-11-10T18:51:32.129Z,13.80
2018-11-10T18:54:00.458Z,13.70
2018-11-10T18:56:28.965Z,13.70
2018-11-10T18:58:57.316Z,13.70
2018-11-10T19:01:25.612Z,13.70
2018-11-10T19:03:54.913Z,13.70
2018-11-10T19:06:23.355Z,13.70
2018-11-10T19:08:51.627Z,13.70
2018-11-10T19:11:19.939Z,13.70
2018-11-10T19:13:49.038Z,13.80
2018-11-10T19:16:17.335Z,13.80
2018-11-10T19:18:45.684Z,13.70
2018-11-10T19:21:13.975Z,13.80
2018-11-10T19:23:42.295Z,13.80
2018-11-10T19:26:11.088Z,13.80
2018-11-10T19:28:39.402Z,13.80
2018-11-10T19:31:07.877Z,13.80
2018-11-10T19:33:36.182Z,13.70
2018-11-10T19:36:04.767Z,13.60
2018-11-10T19:38:33.143Z,13.60
2018-11-10T19:41:01.461Z,13.50
2018-11-10T19:43:29.752Z,13.40
2018-11-10T19:45:58.061Z,13.40
2018-11-10T19:48:26.615Z,13.30
2018-11-10T19:50:55.074Z,13.20
2018-11-10T19:53:23.233Z,13.10
2018-11-10T19:55:51.486Z,13.10
2018-11-10T19:58:19.761Z,13.00
2018-11-10T20:00:48.123Z,13.00
2018-11-10T20:03:16.478Z,13.00
2018-11-10T20:05:44.757Z,13.00
2018-11-10T20:08:13.154Z,12.90
2018-11-10T20:10:41.469Z,12.90
2018-11-10T20:13:09.747Z,12.90
2018-11-10T20:15:38.115Z,12.90
2018-11-10T20:18:06.428Z,12.90
2018-11-10T20:20:34.712Z,12.90
2018-11-10T20:23:05.557Z,12.90
2018-11-10T20:25:34.438Z,12.90
2018-11-10T20:28:02.739Z,12.80
2018-11-10T20:30:31.043Z,12.90
2018-11-10T20:32:59.401Z,12.80
2018-11-10T20:35:27.594Z,12.80
2018-11-10T20:37:55.867Z,12.80
2018-11-10T20:40:24.158Z,12.80
2018-11-10T20:42:52.480Z,12.80
2018-11-10T20:45:21.645Z,12.80
2018-11-10T20:47:49.980Z,12.70
2018-11-10T20:50:18.685Z,12.70
2018-11-10T20:52:47.079Z,12.70
2018-11-10T20:55:15.695Z,12.70
2018-11-10T20:57:44.023Z,12.70
2018-11-10T21:00:15.094Z,12.70
2018-11-10T21:02:43.970Z,13.10
2018-11-10T21:05:12.708Z,12.80
2018-11-10T21:07:41.183Z,12.60
2018-11-10T21:10:13.423Z,12.60
2018-11-10T21:12:42.502Z,12.60
2018-11-10T21:15:11.324Z,12.60
2018-11-10T21:17:39.699Z,12.60
2018-11-10T21:20:09.184Z,12.60
2018-11-10T21:22:37.487Z,12.50
2018-11-10T21:25:07.169Z,12.50
2018-11-10T21:27:35.623Z,12.50
2018-11-10T21:30:04.059Z,12.40
2018-11-10T21:32:32.360Z,12.40
2018-11-10T21:35:00.735Z,12.40
2018-11-10T21:37:29.042Z,12.40
2018-11-10T21:39:58.039Z,12.40
2018-11-10T21:42:27.751Z,12.40
2018-11-10T21:44:56.475Z,12.40
2018-11-10T21:47:24.982Z,12.40
2018-11-10T21:49:53.463Z,12.40
2018-11-10T21:52:21.694Z,12.40
2018-11-10T21:54:50.030Z,12.40
2018-11-10T21:57:18.357Z,12.40
2018-11-10T21:59:46.723Z,12.30
2018-11-10T22:02:15.144Z,12.30
2018-11-10T22:04:43.504Z,12.40
2018-11-10T22:07:11.946Z,12.40
2018-11-10T22:09:40.541Z,12.30
2018-11-10T22:12:08.887Z,12.30
2018-11-10T22:14:37.234Z,12.30
2018-11-10T22:17:05.572Z,12.30
2018-11-10T22:19:34.053Z,12.30
2018-11-10T22:22:02.414Z,12.30
2018-11-10T22:24:30.798Z,12.30
2018-11-10T22:26:59.240Z,12.30
2018-11-10T22:29:27.626Z,12.30
2018-11-10T22:31:59.661Z,12.30
2018-11-10T22:34:27.976Z,12.30
2018-11-10T22:36:56.291Z,12.30
2018-11-10T22:39:24.628Z,12.30
2018-11-10T22:41:52.978Z,12.30
2018-11-10T22:44:21.497Z,12.30
2018-11-10T22:46:49.866Z,12.30
2018-11-10T22:49:18.306Z,12.30
2018-11-10T22:51:46.615Z,12.30
2018-11-10T22:54:15.006Z,12.30
2018-11-10T22:56:43.328Z,12.40
2018-11-10T22:59:11.653Z,12.40
2018-11-10T23:01:40.081Z,12.30
2018-11-10T23:04:08.420Z,12.40
2018-11-10T23:06:36.910Z,12.30
2018-11-10T23:09:07.494Z,12.30
2018-11-10T23:11:35.882Z,12.30
2018-11-10T23:14:04.243Z,12.40
2018-11-10T23:16:32.567Z,12.30
2018-11-10T23:19:00.823Z,12.40
2018-11-10T23:21:29.178Z,12.40
2018-11-10T23:23:57.543Z,12.30
2018-11-10T23:26:25.959Z,12.40
2018-11-10T23:28:54.247Z,12.30
2018-11-10T23:31:22.587Z,12.30
2018-11-10T23:33:51.127Z,12.20
2018-11-10T23:36:19.450Z,12.20
2018-11-10T23:38:47.781Z,12.20
2018-11-10T23:41:16.191Z,12.20
2018-11-10T23:43:44.517Z,12.20
2018-11-10T23:46:12.883Z,12.20
2018-11-10T23:48:41.226Z,12.20
2018-11-10T23:51:09.582Z,12.20
2018-11-10T23:53:37.943Z,12.20
2018-11-10T23:56:06.236Z,12.30
2018-11-10T23:58:34.573Z,12.30
